sensor_id;sensor_type;location;lat;lon;timestamp;P1;durP1;ratioP1;P2;durP2;ratioP2
10890;SDS011;5498;50.928;11.598;2022-09-09T00:01:28;2.47;;;1.57;;
10890;SDS011;5498;50.928;11.598;2022-09-09T00:04:39;5.73;;;1.80;;
10890;SDS011;5498;50.928;11.598;2022-09-09T00:07:45;4.00;;;1.50;;
10890;SDS011;5498;50.928;11.598;2022-09-09T00:10:51;2.90;;;1.50;;
10890;SDS011;5498;50.928;11.598;2022-09-09T00:14:00;6.23;;;1.67;;
10890;SDS011;5498;50.928;11.598;2022-09-09T00:17:12;2.10;;;1.57;;
10890;SDS011;5498;50.928;11.598;2022-09-09T00:20:28;2.70;;;1.63;;
10890;SDS011;5498;50.928;11.598;2022-09-09T00:23:37;1.80;;;1.40;;
10890;SDS011;5498;50.928;11.598;2022-09-09T00:26:42;3.60;;;1.63;;
10890;SDS011;5498;50.928;11.598;2022-09-09T00:29:51;4.13;;;1.67;;
10890;SDS011;5498;50.928;11.598;2022-09-09T00:32:58;2.73;;;1.70;;
10890;SDS011;5498;50.928;11.598;2022-09-09T00:36:04;3.07;;;1.30;;
10890;SDS011;5498;50.928;11.598;2022-09-09T00:39:19;1.37;;;1.27;;
10890;SDS011;5498;50.928;11.598;2022-09-09T00:42:32;2.73;;;1.17;;
10890;SDS011;5498;50.928;11.598;2022-09-09T00:45:49;6.93;;;1.90;;
10890;SDS011;5498;50.928;11.598;2022-09-09T00:49:08;4.87;;;1.40;;
10890;SDS011;5498;50.928;11.598;2022-09-09T00:52:26;2.53;;;1.67;;
10890;SDS011;5498;50.928;11.598;2022-09-09T00:55:41;2.40;;;1.30;;
10890;SDS011;5498;50.928;11.598;2022-09-09T00:58:55;2.87;;;1.60;;
10890;SDS011;5498;50.928;11.598;2022-09-09T01:02:07;3.83;;;1.40;;
10890;SDS011;5498;50.928;11.598;2022-09-09T01:05:25;2.53;;;1.50;;
10890;SDS011;5498;50.928;11.598;2022-09-09T01:08:45;2.93;;;1.80;;
10890;SDS011;5498;50.928;11.598;2022-09-09T01:12:23;4.60;;;1.80;;
10890;SDS011;5498;50.928;11.598;2022-09-09T01:15:31;6.63;;;1.73;;
10890;SDS011;5498;50.928;11.598;2022-09-09T01:18:36;2.00;;;1.63;;
10890;SDS011;5498;50.928;11.598;2022-09-09T01:21:43;3.47;;;1.77;;
10890;SDS011;5498;50.928;11.598;2022-09-09T01:25:08;3.10;;;1.53;;
10890;SDS011;5498;50.928;11.598;2022-09-09T01:28:25;2.13;;;1.37;;
10890;SDS011;5498;50.928;11.598;2022-09-09T01:31:31;4.73;;;1.70;;
10890;SDS011;5498;50.928;11.598;2022-09-09T01:34:38;2.30;;;1.30;;
10890;SDS011;5498;50.928;11.598;2022-09-09T01:37:42;3.07;;;1.50;;
10890;SDS011;5498;50.928;11.598;2022-09-09T01:40:44;3.33;;;1.30;;
10890;SDS011;5498;50.928;11.598;2022-09-09T01:43:48;4.53;;;1.97;;
10890;SDS011;5498;50.928;11.598;2022-09-09T01:46:51;1.97;;;1.60;;
10890;SDS011;5498;50.928;11.598;2022-09-09T01:49:54;5.57;;;1.50;;
10890;SDS011;5498;50.928;11.598;2022-09-09T01:52:56;2.23;;;1.47;;
10890;SDS011;5498;50.928;11.598;2022-09-09T01:56:06;3.00;;;1.70;;
10890;SDS011;5498;50.928;11.598;2022-09-09T01:59:27;8.33;;;1.67;;
10890;SDS011;5498;50.928;11.598;2022-09-09T02:02:48;6.13;;;1.50;;
10890;SDS011;5498;50.928;11.598;2022-09-09T02:06:03;2.33;;;1.63;;
10890;SDS011;5498;50.928;11.598;2022-09-09T02:09:15;2.97;;;1.20;;
10890;SDS011;5498;50.928;11.598;2022-09-09T02:12:23;4.80;;;1.53;;
10890;SDS011;5498;50.928;11.598;2022-09-09T02:15:28;8.30;;;1.50;;
10890;SDS011;5498;50.928;11.598;2022-09-09T02:18:35;2.27;;;1.30;;
10890;SDS011;5498;50.928;11.598;2022-09-09T02:21:44;3.73;;;1.43;;
10890;SDS011;5498;50.928;11.598;2022-09-09T02:24:48;6.40;;;1.77;;
10890;SDS011;5498;50.928;11.598;2022-09-09T02:27:53;7.27;;;2.03;;
10890;SDS011;5498;50.928;11.598;2022-09-09T02:30:58;6.20;;;1.60;;
10890;SDS011;5498;50.928;11.598;2022-09-09T02:34:02;3.77;;;1.70;;
10890;SDS011;5498;50.928;11.598;2022-09-09T02:37:06;3.00;;;1.17;;
10890;SDS011;5498;50.928;11.598;2022-09-09T02:40:11;4.47;;;1.90;;
10890;SDS011;5498;50.928;11.598;2022-09-09T02:43:16;1.83;;;1.27;;
10890;SDS011;5498;50.928;11.598;2022-09-09T02:46:24;3.47;;;1.50;;
10890;SDS011;5498;50.928;11.598;2022-09-09T02:49:40;3.63;;;1.40;;
10890;SDS011;5498;50.928;11.598;2022-09-09T02:53:01;3.60;;;1.40;;
10890;SDS011;5498;50.928;11.598;2022-09-09T02:56:13;1.73;;;1.20;;
10890;SDS011;5498;50.928;11.598;2022-09-09T02:59:18;2.83;;;1.40;;
10890;SDS011;5498;50.928;11.598;2022-09-09T03:02:23;2.50;;;1.67;;
10890;SDS011;5498;50.928;11.598;2022-09-09T03:05:25;4.07;;;1.40;;
10890;SDS011;5498;50.928;11.598;2022-09-09T03:08:29;1.43;;;1.00;;
10890;SDS011;5498;50.928;11.598;2022-09-09T03:11:31;6.47;;;1.60;;
10890;SDS011;5498;50.928;11.598;2022-09-09T03:14:33;1.73;;;1.43;;
10890;SDS011;5498;50.928;11.598;2022-09-09T03:17:37;2.60;;;1.37;;
10890;SDS011;5498;50.928;11.598;2022-09-09T03:20:40;1.90;;;1.20;;
10890;SDS011;5498;50.928;11.598;2022-09-09T03:23:43;4.47;;;1.33;;
10890;SDS011;5498;50.928;11.598;2022-09-09T03:26:46;4.03;;;1.80;;
10890;SDS011;5498;50.928;11.598;2022-09-09T03:29:48;7.97;;;1.20;;
10890;SDS011;5498;50.928;11.598;2022-09-09T03:32:53;5.83;;;1.30;;
10890;SDS011;5498;50.928;11.598;2022-09-09T03:35:57;5.40;;;1.20;;
10890;SDS011;5498;50.928;11.598;2022-09-09T03:38:59;3.67;;;1.20;;
10890;SDS011;5498;50.928;11.598;2022-09-09T03:42:03;1.50;;;1.37;;
10890;SDS011;5498;50.928;11.598;2022-09-09T03:45:06;7.17;;;1.60;;
10890;SDS011;5498;50.928;11.598;2022-09-09T03:48:11;1.33;;;1.00;;
10890;SDS011;5498;50.928;11.598;2022-09-09T03:51:13;5.13;;;1.47;;
10890;SDS011;5498;50.928;11.598;2022-09-09T03:54:16;2.37;;;1.73;;
10890;SDS011;5498;50.928;11.598;2022-09-09T03:57:17;3.03;;;1.43;;
10890;SDS011;5498;50.928;11.598;2022-09-09T04:00:19;5.07;;;1.57;;
10890;SDS011;5498;50.928;11.598;2022-09-09T04:03:23;2.00;;;1.17;;
10890;SDS011;5498;50.928;11.598;2022-09-09T04:06:26;3.07;;;1.30;;
10890;SDS011;5498;50.928;11.598;2022-09-09T04:09:38;2.90;;;1.43;;
10890;SDS011;5498;50.928;11.598;2022-09-09T04:12:42;11.23;;;1.40;;
10890;SDS011;5498;50.928;11.598;2022-09-09T04:15:49;4.87;;;1.67;;
10890;SDS011;5498;50.928;11.598;2022-09-09T04:18:56;4.40;;;1.43;;
10890;SDS011;5498;50.928;11.598;2022-09-09T04:22:07;2.47;;;1.40;;
10890;SDS011;5498;50.928;11.598;2022-09-09T04:25:12;1.70;;;1.60;;
10890;SDS011;5498;50.928;11.598;2022-09-09T04:28:15;4.33;;;1.47;;
10890;SDS011;5498;50.928;11.598;2022-09-09T04:31:18;5.30;;;1.60;;
10890;SDS011;5498;50.928;11.598;2022-09-09T04:34:24;3.63;;;1.87;;
10890;SDS011;5498;50.928;11.598;2022-09-09T04:37:32;4.70;;;1.37;;
10890;SDS011;5498;50.928;11.598;2022-09-09T04:40:41;2.53;;;1.87;;
10890;SDS011;5498;50.928;11.598;2022-09-09T04:43:51;6.60;;;1.17;;
10890;SDS011;5498;50.928;11.598;2022-09-09T04:46:53;6.37;;;1.60;;
10890;SDS011;5498;50.928;11.598;2022-09-09T04:50:08;1.37;;;1.27;;
10890;SDS011;5498;50.928;11.598;2022-09-09T04:53:46;6.20;;;1.80;;
10890;SDS011;5498;50.928;11.598;2022-09-09T04:56:51;4.73;;;1.80;;
10890;SDS011;5498;50.928;11.598;2022-09-09T05:01:01;6.33;;;1.97;;
10890;SDS011;5498;50.928;11.598;2022-09-09T05:03:54;2.20;;;1.27;;
10890;SDS011;5498;50.928;11.598;2022-09-09T05:11:55;1.50;;;1.30;;
10890;SDS011;5498;50.928;11.598;2022-09-09T05:15:15;4.47;;;1.63;;
10890;SDS011;5498;50.928;11.598;2022-09-09T05:18:16;5.60;;;1.53;;
10890;SDS011;5498;50.928;11.598;2022-09-09T05:21:20;1.97;;;1.20;;
10890;SDS011;5498;50.928;11.598;2022-09-09T05:24:26;5.07;;;1.27;;
10890;SDS011;5498;50.928;11.598;2022-09-09T05:27:29;7.90;;;1.50;;
10890;SDS011;5498;50.928;11.598;2022-09-09T05:30:31;6.77;;;1.47;;
10890;SDS011;5498;50.928;11.598;2022-09-09T05:33:34;1.03;;;1.03;;
10890;SDS011;5498;50.928;11.598;2022-09-09T05:36:36;8.33;;;1.67;;
10890;SDS011;5498;50.928;11.598;2022-09-09T05:39:40;3.03;;;1.40;;
10890;SDS011;5498;50.928;11.598;2022-09-09T05:42:42;3.97;;;1.80;;
10890;SDS011;5498;50.928;11.598;2022-09-09T05:45:44;4.70;;;1.50;;
10890;SDS011;5498;50.928;11.598;2022-09-09T05:48:48;3.47;;;1.50;;
10890;SDS011;5498;50.928;11.598;2022-09-09T05:51:52;3.80;;;1.57;;
10890;SDS011;5498;50.928;11.598;2022-09-09T05:54:55;4.13;;;1.13;;
10890;SDS011;5498;50.928;11.598;2022-09-09T05:58:01;5.07;;;1.57;;
10890;SDS011;5498;50.928;11.598;2022-09-09T06:01:03;3.30;;;1.50;;
10890;SDS011;5498;50.928;11.598;2022-09-09T06:04:08;11.00;;;2.30;;
10890;SDS011;5498;50.928;11.598;2022-09-09T06:07:10;11.37;;;2.03;;
10890;SDS011;5498;50.928;11.598;2022-09-09T06:10:15;8.83;;;1.70;;
10890;SDS011;5498;50.928;11.598;2022-09-09T06:13:19;3.27;;;1.60;;
10890;SDS011;5498;50.928;11.598;2022-09-09T06:16:22;4.57;;;1.40;;
10890;SDS011;5498;50.928;11.598;2022-09-09T06:19:26;4.57;;;1.63;;
10890;SDS011;5498;50.928;11.598;2022-09-09T06:22:28;7.57;;;2.10;;
10890;SDS011;5498;50.928;11.598;2022-09-09T06:25:32;3.80;;;1.70;;
10890;SDS011;5498;50.928;11.598;2022-09-09T06:28:34;3.97;;;1.50;;
10890;SDS011;5498;50.928;11.598;2022-09-09T06:31:37;5.90;;;1.43;;
10890;SDS011;5498;50.928;11.598;2022-09-09T06:34:43;3.20;;;1.63;;
10890;SDS011;5498;50.928;11.598;2022-09-09T06:37:47;3.10;;;1.50;;
10890;SDS011;5498;50.928;11.598;2022-09-09T06:40:54;7.37;;;1.60;;
10890;SDS011;5498;50.928;11.598;2022-09-09T06:43:58;4.93;;;1.50;;
10890;SDS011;5498;50.928;11.598;2022-09-09T06:47:00;4.63;;;1.40;;
10890;SDS011;5498;50.928;11.598;2022-09-09T06:50:03;5.40;;;1.87;;
10890;SDS011;5498;50.928;11.598;2022-09-09T06:53:06;4.33;;;1.53;;
10890;SDS011;5498;50.928;11.598;2022-09-09T06:56:19;8.03;;;1.70;;
10890;SDS011;5498;50.928;11.598;2022-09-09T06:59:24;2.37;;;1.50;;
10890;SDS011;5498;50.928;11.598;2022-09-09T07:02:27;2.37;;;1.40;;
10890;SDS011;5498;50.928;11.598;2022-09-09T07:05:30;2.80;;;1.50;;
10890;SDS011;5498;50.928;11.598;2022-09-09T07:08:31;4.67;;;1.43;;
10890;SDS011;5498;50.928;11.598;2022-09-09T07:11:36;8.07;;;1.87;;
10890;SDS011;5498;50.928;11.598;2022-09-09T07:14:41;1.50;;;1.27;;
10890;SDS011;5498;50.928;11.598;2022-09-09T07:17:43;2.10;;;0.83;;
10890;SDS011;5498;50.928;11.598;2022-09-09T07:20:52;4.87;;;1.63;;
10890;SDS011;5498;50.928;11.598;2022-09-09T07:23:55;5.50;;;1.87;;
10890;SDS011;5498;50.928;11.598;2022-09-09T07:26:59;1.30;;;1.20;;
10890;SDS011;5498;50.928;11.598;2022-09-09T07:30:01;11.00;;;1.60;;
10890;SDS011;5498;50.928;11.598;2022-09-09T07:33:03;1.87;;;1.40;;
10890;SDS011;5498;50.928;11.598;2022-09-09T07:36:07;4.10;;;1.37;;
10890;SDS011;5498;50.928;11.598;2022-09-09T07:39:12;9.30;;;1.37;;
10890;SDS011;5498;50.928;11.598;2022-09-09T07:42:18;6.37;;;1.90;;
10890;SDS011;5498;50.928;11.598;2022-09-09T07:45:20;10.43;;;1.47;;
10890;SDS011;5498;50.928;11.598;2022-09-09T07:48:23;2.20;;;1.20;;
10890;SDS011;5498;50.928;11.598;2022-09-09T07:51:27;3.80;;;1.47;;
10890;SDS011;5498;50.928;11.598;2022-09-09T07:54:31;4.73;;;1.47;;
10890;SDS011;5498;50.928;11.598;2022-09-09T07:57:34;4.40;;;1.50;;
10890;SDS011;5498;50.928;11.598;2022-09-09T08:00:36;4.33;;;1.93;;
10890;SDS011;5498;50.928;11.598;2022-09-09T08:03:39;6.77;;;1.90;;
10890;SDS011;5498;50.928;11.598;2022-09-09T08:06:42;3.23;;;1.10;;
10890;SDS011;5498;50.928;11.598;2022-09-09T08:09:47;6.03;;;1.90;;
10890;SDS011;5498;50.928;11.598;2022-09-09T08:12:50;1.25;;;1.13;;
10890;SDS011;5498;50.928;11.598;2022-09-09T08:15:52;3.80;;;1.00;;
10890;SDS011;5498;50.928;11.598;2022-09-09T08:18:54;5.03;;;1.45;;
10890;SDS011;5498;50.928;11.598;2022-09-09T08:21:56;4.70;;;1.50;;
10890;SDS011;5498;50.928;11.598;2022-09-09T08:24:58;4.10;;;1.60;;
10890;SDS011;5498;50.928;11.598;2022-09-09T08:28:01;2.27;;;1.90;;
10890;SDS011;5498;50.928;11.598;2022-09-09T08:31:07;2.08;;;1.20;;
10890;SDS011;5498;50.928;11.598;2022-09-09T08:34:12;6.43;;;1.20;;
10890;SDS011;5498;50.928;11.598;2022-09-09T08:37:14;4.00;;;1.20;;
10890;SDS011;5498;50.928;11.598;2022-09-09T08:40:18;1.58;;;1.02;;
10890;SDS011;5498;50.928;11.598;2022-09-09T08:43:31;1.52;;;1.20;;
10890;SDS011;5498;50.928;11.598;2022-09-09T08:46:36;1.40;;;1.10;;
10890;SDS011;5498;50.928;11.598;2022-09-09T08:49:53;2.72;;;1.52;;
10890;SDS011;5498;50.928;11.598;2022-09-09T08:53:09;5.25;;;1.15;;
10890;SDS011;5498;50.928;11.598;2022-09-09T08:56:18;7.68;;;1.55;;
10890;SDS011;5498;50.928;11.598;2022-09-09T08:59:34;1.80;;;1.20;;
10890;SDS011;5498;50.928;11.598;2022-09-09T09:02:38;3.80;;;1.35;;
10890;SDS011;5498;50.928;11.598;2022-09-09T09:05:51;4.47;;;1.52;;
10890;SDS011;5498;50.928;11.598;2022-09-09T09:09:05;6.80;;;1.25;;
10890;SDS011;5498;50.928;11.598;2022-09-09T09:12:15;4.97;;;1.20;;
10890;SDS011;5498;50.928;11.598;2022-09-09T09:15:23;1.65;;;0.90;;
10890;SDS011;5498;50.928;11.598;2022-09-09T09:18:27;2.40;;;1.10;;
10890;SDS011;5498;50.928;11.598;2022-09-09T09:24:43;2.72;;;1.10;;
10890;SDS011;5498;50.928;11.598;2022-09-09T09:27:57;4.75;;;1.45;;
10890;SDS011;5498;50.928;11.598;2022-09-09T09:31:03;2.67;;;0.98;;
10890;SDS011;5498;50.928;11.598;2022-09-09T09:34:12;3.00;;;1.20;;
10890;SDS011;5498;50.928;11.598;2022-09-09T09:40:47;2.22;;;0.90;;
10890;SDS011;5498;50.928;11.598;2022-09-09T09:43:53;8.10;;;1.20;;
10890;SDS011;5498;50.928;11.598;2022-09-09T09:47:06;2.65;;;1.45;;
10890;SDS011;5498;50.928;11.598;2022-09-09T09:50:16;1.90;;;1.00;;
10890;SDS011;5498;50.928;11.598;2022-09-09T09:53:22;4.32;;;1.10;;
10890;SDS011;5498;50.928;11.598;2022-09-09T09:56:27;3.70;;;1.42;;
10890;SDS011;5498;50.928;11.598;2022-09-09T09:59:33;3.15;;;1.17;;
10890;SDS011;5498;50.928;11.598;2022-09-09T10:02:39;3.85;;;0.77;;
10890;SDS011;5498;50.928;11.598;2022-09-09T10:05:44;3.67;;;1.20;;
10890;SDS011;5498;50.928;11.598;2022-09-09T10:08:47;1.83;;;1.08;;
10890;SDS011;5498;50.928;11.598;2022-09-09T10:11:52;3.88;;;1.58;;
10890;SDS011;5498;50.928;11.598;2022-09-09T10:15:01;2.35;;;1.02;;
10890;SDS011;5498;50.928;11.598;2022-09-09T10:18:15;2.60;;;1.27;;
10890;SDS011;5498;50.928;11.598;2022-09-09T10:21:43;2.35;;;1.00;;
10890;SDS011;5498;50.928;11.598;2022-09-09T10:25:11;5.63;;;1.20;;
10890;SDS011;5498;50.928;11.598;2022-09-09T10:28:27;2.45;;;0.95;;
10890;SDS011;5498;50.928;11.598;2022-09-09T10:31:45;2.72;;;1.10;;
10890;SDS011;5498;50.928;11.598;2022-09-09T10:35:01;1.95;;;1.40;;
10890;SDS011;5498;50.928;11.598;2022-09-09T10:38:20;2.20;;;0.82;;
10890;SDS011;5498;50.928;11.598;2022-09-09T10:41:35;2.92;;;0.80;;
10890;SDS011;5498;50.928;11.598;2022-09-09T10:44:55;4.35;;;1.20;;
10890;SDS011;5498;50.928;11.598;2022-09-09T10:48:20;6.22;;;1.52;;
10890;SDS011;5498;50.928;11.598;2022-09-09T10:51:50;3.90;;;1.15;;
10890;SDS011;5498;50.928;11.598;2022-09-09T10:54:59;4.13;;;0.93;;
10890;SDS011;5498;50.928;11.598;2022-09-09T10:58:10;3.50;;;1.10;;
10890;SDS011;5498;50.928;11.598;2022-09-09T11:01:24;3.30;;;1.33;;
10890;SDS011;5498;50.928;11.598;2022-09-09T11:04:31;2.08;;;0.88;;
10890;SDS011;5498;50.928;11.598;2022-09-09T11:07:39;3.80;;;1.17;;
10890;SDS011;5498;50.928;11.598;2022-09-09T11:10:45;5.72;;;0.98;;
10890;SDS011;5498;50.928;11.598;2022-09-09T11:13:55;2.17;;;0.93;;
10890;SDS011;5498;50.928;11.598;2022-09-09T11:20:19;6.50;;;1.45;;
10890;SDS011;5498;50.928;11.598;2022-09-09T11:23:24;2.95;;;1.00;;
10890;SDS011;5498;50.928;11.598;2022-09-09T11:26:37;2.15;;;1.00;;
10890;SDS011;5498;50.928;11.598;2022-09-09T11:37:08;1.30;;;0.93;;
10890;SDS011;5498;50.928;11.598;2022-09-09T11:40:26;1.50;;;1.00;;
10890;SDS011;5498;50.928;11.598;2022-09-09T11:43:32;1.90;;;1.08;;
10890;SDS011;5498;50.928;11.598;2022-09-09T11:46:40;2.10;;;1.05;;
10890;SDS011;5498;50.928;11.598;2022-09-09T11:49:43;6.97;;;1.35;;
10890;SDS011;5498;50.928;11.598;2022-09-09T11:52:46;1.35;;;0.77;;
10890;SDS011;5498;50.928;11.598;2022-09-09T11:56:01;2.85;;;1.08;;
10890;SDS011;5498;50.928;11.598;2022-09-09T11:59:19;2.95;;;0.88;;
10890;SDS011;5498;50.928;11.598;2022-09-09T12:02:24;4.82;;;1.10;;
10890;SDS011;5498;50.928;11.598;2022-09-09T12:05:36;5.47;;;1.33;;
10890;SDS011;5498;50.928;11.598;2022-09-09T12:08:42;2.53;;;1.02;;
10890;SDS011;5498;50.928;11.598;2022-09-09T12:11:50;2.05;;;1.00;;
10890;SDS011;5498;50.928;11.598;2022-09-09T12:14:57;1.98;;;1.08;;
10890;SDS011;5498;50.928;11.598;2022-09-09T12:18:02;3.13;;;1.15;;
10890;SDS011;5498;50.928;11.598;2022-09-09T12:21:18;3.85;;;0.95;;
10890;SDS011;5498;50.928;11.598;2022-09-09T12:24:43;1.38;;;0.88;;
10890;SDS011;5498;50.928;11.598;2022-09-09T12:27:59;2.50;;;0.73;;
10890;SDS011;5498;50.928;11.598;2022-09-09T12:31:12;2.78;;;0.85;;
10890;SDS011;5498;50.928;11.598;2022-09-09T12:34:22;3.20;;;1.08;;
10890;SDS011;5498;50.928;11.598;2022-09-09T12:37:37;1.63;;;1.13;;
10890;SDS011;5498;50.928;11.598;2022-09-09T12:40:53;3.80;;;1.67;;
10890;SDS011;5498;50.928;11.598;2022-09-09T12:44:04;1.00;;;0.90;;
10890;SDS011;5498;50.928;11.598;2022-09-09T12:47:09;3.05;;;0.70;;
10890;SDS011;5498;50.928;11.598;2022-09-09T12:50:17;1.27;;;0.60;;
10890;SDS011;5498;50.928;11.598;2022-09-09T12:53:23;1.38;;;0.80;;
10890;SDS011;5498;50.928;11.598;2022-09-09T12:56:29;1.10;;;0.85;;
10890;SDS011;5498;50.928;11.598;2022-09-09T12:59:39;1.88;;;0.88;;
10890;SDS011;5498;50.928;11.598;2022-09-09T13:02:45;1.52;;;0.60;;
10890;SDS011;5498;50.928;11.598;2022-09-09T13:05:51;5.20;;;1.00;;
10890;SDS011;5498;50.928;11.598;2022-09-09T13:09:00;1.58;;;1.10;;
10890;SDS011;5498;50.928;11.598;2022-09-09T13:12:03;3.05;;;0.90;;
10890;SDS011;5498;50.928;11.598;2022-09-09T13:15:12;2.30;;;1.10;;
10890;SDS011;5498;50.928;11.598;2022-09-09T13:18:23;3.25;;;0.90;;
10890;SDS011;5498;50.928;11.598;2022-09-09T13:21:33;1.27;;;1.10;;
10890;SDS011;5498;50.928;11.598;2022-09-09T13:24:41;4.25;;;1.60;;
10890;SDS011;5498;50.928;11.598;2022-09-09T13:27:51;4.20;;;0.95;;
10890;SDS011;5498;50.928;11.598;2022-09-09T13:31:00;2.25;;;0.90;;
10890;SDS011;5498;50.928;11.598;2022-09-09T13:34:10;4.25;;;0.93;;
10890;SDS011;5498;50.928;11.598;2022-09-09T13:37:16;4.03;;;1.20;;
10890;SDS011;5498;50.928;11.598;2022-09-09T13:40:25;4.28;;;1.00;;
10890;SDS011;5498;50.928;11.598;2022-09-09T13:43:27;1.65;;;0.80;;
10890;SDS011;5498;50.928;11.598;2022-09-09T13:46:33;2.40;;;0.85;;
10890;SDS011;5498;50.928;11.598;2022-09-09T13:49:37;1.45;;;1.02;;
10890;SDS011;5498;50.928;11.598;2022-09-09T13:52:39;2.03;;;1.00;;
10890;SDS011;5498;50.928;11.598;2022-09-09T13:55:41;2.17;;;0.98;;
10890;SDS011;5498;50.928;11.598;2022-09-09T13:58:43;1.88;;;1.02;;
10890;SDS011;5498;50.928;11.598;2022-09-09T14:01:48;7.28;;;0.82;;
10890;SDS011;5498;50.928;11.598;2022-09-09T14:04:52;4.03;;;0.90;;
10890;SDS011;5498;50.928;11.598;2022-09-09T14:07:55;1.77;;;1.02;;
10890;SDS011;5498;50.928;11.598;2022-09-09T14:10:59;3.92;;;0.85;;
10890;SDS011;5498;50.928;11.598;2022-09-09T14:14:01;5.25;;;1.08;;
10890;SDS011;5498;50.928;11.598;2022-09-09T14:17:04;3.42;;;1.27;;
10890;SDS011;5498;50.928;11.598;2022-09-09T14:20:07;4.15;;;0.75;;
10890;SDS011;5498;50.928;11.598;2022-09-09T14:23:10;2.10;;;1.13;;
10890;SDS011;5498;50.928;11.598;2022-09-09T14:26:13;0.90;;;0.80;;
10890;SDS011;5498;50.928;11.598;2022-09-09T14:29:15;2.15;;;1.00;;
10890;SDS011;5498;50.928;11.598;2022-09-09T14:32:18;1.75;;;1.05;;
10890;SDS011;5498;50.928;11.598;2022-09-09T14:35:21;6.18;;;1.15;;
10890;SDS011;5498;50.928;11.598;2022-09-09T14:38:24;1.17;;;0.85;;
10890;SDS011;5498;50.928;11.598;2022-09-09T14:41:26;0.52;;;0.52;;
10890;SDS011;5498;50.928;11.598;2022-09-09T14:44:29;1.60;;;0.70;;
10890;SDS011;5498;50.928;11.598;2022-09-09T14:47:33;1.38;;;0.70;;
10890;SDS011;5498;50.928;11.598;2022-09-09T14:50:36;3.15;;;0.70;;
10890;SDS011;5498;50.928;11.598;2022-09-09T14:53:40;3.38;;;0.80;;
10890;SDS011;5498;50.928;11.598;2022-09-09T14:56:42;1.27;;;0.82;;
10890;SDS011;5498;50.928;11.598;2022-09-09T14:59:44;1.58;;;0.90;;
10890;SDS011;5498;50.928;11.598;2022-09-09T15:02:47;0.63;;;0.63;;
10890;SDS011;5498;50.928;11.598;2022-09-09T15:05:53;1.33;;;0.80;;
10890;SDS011;5498;50.928;11.598;2022-09-09T15:08:55;0.80;;;0.65;;
10890;SDS011;5498;50.928;11.598;2022-09-09T15:12:01;1.42;;;0.90;;
10890;SDS011;5498;50.928;11.598;2022-09-09T15:15:05;0.60;;;0.60;;
10890;SDS011;5498;50.928;11.598;2022-09-09T15:18:09;1.75;;;1.02;;
10890;SDS011;5498;50.928;11.598;2022-09-09T15:21:13;1.05;;;0.93;;
10890;SDS011;5498;50.928;11.598;2022-09-09T15:24:17;2.00;;;0.80;;
10890;SDS011;5498;50.928;11.598;2022-09-09T15:27:19;0.70;;;0.70;;
10890;SDS011;5498;50.928;11.598;2022-09-09T15:30:25;1.85;;;0.57;;
10890;SDS011;5498;50.928;11.598;2022-09-09T15:33:33;1.33;;;0.75;;
10890;SDS011;5498;50.928;11.598;2022-09-09T15:36:37;0.50;;;0.50;;
10890;SDS011;5498;50.928;11.598;2022-09-09T15:39:40;0.90;;;0.70;;
10890;SDS011;5498;50.928;11.598;2022-09-09T15:42:42;2.83;;;1.23;;
10890;SDS011;5498;50.928;11.598;2022-09-09T15:45:46;2.75;;;0.88;;
10890;SDS011;5498;50.928;11.598;2022-09-09T15:48:57;1.35;;;0.80;;
10890;SDS011;5498;50.928;11.598;2022-09-09T15:52:04;1.20;;;0.77;;
10890;SDS011;5498;50.928;11.598;2022-09-09T15:55:06;1.48;;;0.90;;
10890;SDS011;5498;50.928;11.598;2022-09-09T15:58:14;2.65;;;1.10;;
10890;SDS011;5498;50.928;11.598;2022-09-09T16:01:17;2.15;;;1.05;;
10890;SDS011;5498;50.928;11.598;2022-09-09T16:04:26;0.80;;;0.63;;
10890;SDS011;5498;50.928;11.598;2022-09-09T16:07:31;1.63;;;0.68;;
10890;SDS011;5498;50.928;11.598;2022-09-09T16:10:36;1.35;;;0.80;;
10890;SDS011;5498;50.928;11.598;2022-09-09T16:13:40;1.45;;;0.77;;
10890;SDS011;5498;50.928;11.598;2022-09-09T16:16:44;1.25;;;0.77;;
10890;SDS011;5498;50.928;11.598;2022-09-09T16:19:47;1.17;;;0.95;;
10890;SDS011;5498;50.928;11.598;2022-09-09T16:22:49;1.15;;;1.08;;
10890;SDS011;5498;50.928;11.598;2022-09-09T16:25:55;2.53;;;1.05;;
10890;SDS011;5498;50.928;11.598;2022-09-09T16:29:11;0.95;;;0.73;;
10890;SDS011;5498;50.928;11.598;2022-09-09T16:32:22;1.10;;;0.80;;
10890;SDS011;5498;50.928;11.598;2022-09-09T16:35:44;1.27;;;0.80;;
10890;SDS011;5498;50.928;11.598;2022-09-09T16:38:46;2.75;;;1.08;;
10890;SDS011;5498;50.928;11.598;2022-09-09T16:41:49;1.90;;;0.90;;
10890;SDS011;5498;50.928;11.598;2022-09-09T16:44:52;1.38;;;0.77;;
10890;SDS011;5498;50.928;11.598;2022-09-09T16:47:54;2.20;;;0.88;;
10890;SDS011;5498;50.928;11.598;2022-09-09T16:51:01;1.63;;;0.65;;
10890;SDS011;5498;50.928;11.598;2022-09-09T16:54:06;3.55;;;1.00;;
10890;SDS011;5498;50.928;11.598;2022-09-09T16:57:10;3.60;;;1.48;;
10890;SDS011;5498;50.928;11.598;2022-09-09T17:00:12;3.95;;;2.45;;
10890;SDS011;5498;50.928;11.598;2022-09-09T17:03:14;4.60;;;1.92;;
10890;SDS011;5498;50.928;11.598;2022-09-09T17:06:17;2.03;;;1.50;;
10890;SDS011;5498;50.928;11.598;2022-09-09T17:09:20;1.48;;;1.17;;
10890;SDS011;5498;50.928;11.598;2022-09-09T17:12:22;1.17;;;0.90;;
10890;SDS011;5498;50.928;11.598;2022-09-09T17:15:25;1.65;;;1.00;;
10890;SDS011;5498;50.928;11.598;2022-09-09T17:18:27;3.15;;;1.58;;
10890;SDS011;5498;50.928;11.598;2022-09-09T17:21:31;4.97;;;1.30;;
10890;SDS011;5498;50.928;11.598;2022-09-09T17:24:33;6.88;;;1.73;;
10890;SDS011;5498;50.928;11.598;2022-09-09T17:27:38;4.13;;;1.50;;
10890;SDS011;5498;50.928;11.598;2022-09-09T17:30:40;1.63;;;1.52;;
10890;SDS011;5498;50.928;11.598;2022-09-09T17:33:43;4.15;;;1.10;;
10890;SDS011;5498;50.928;11.598;2022-09-09T17:36:49;2.08;;;1.10;;
10890;SDS011;5498;50.928;11.598;2022-09-09T17:39:51;1.90;;;1.00;;
10890;SDS011;5498;50.928;11.598;2022-09-09T17:42:53;2.85;;;1.50;;
10890;SDS011;5498;50.928;11.598;2022-09-09T17:46:04;4.20;;;1.38;;
10890;SDS011;5498;50.928;11.598;2022-09-09T17:49:08;4.38;;;1.27;;
10890;SDS011;5498;50.928;11.598;2022-09-09T17:52:13;3.40;;;1.67;;
10890;SDS011;5498;50.928;11.598;2022-09-09T17:55:15;2.47;;;1.33;;
10890;SDS011;5498;50.928;11.598;2022-09-09T17:58:17;1.65;;;1.38;;
10890;SDS011;5498;50.928;11.598;2022-09-09T18:01:21;3.85;;;1.98;;
10890;SDS011;5498;50.928;11.598;2022-09-09T18:04:26;7.35;;;1.38;;
10890;SDS011;5498;50.928;11.598;2022-09-09T18:07:30;3.53;;;1.17;;
10890;SDS011;5498;50.928;11.598;2022-09-09T18:10:32;1.45;;;1.15;;
10890;SDS011;5498;50.928;11.598;2022-09-09T18:13:34;2.67;;;1.50;;
10890;SDS011;5498;50.928;11.598;2022-09-09T18:16:36;1.40;;;1.27;;
10890;SDS011;5498;50.928;11.598;2022-09-09T18:19:39;1.48;;;1.20;;
10890;SDS011;5498;50.928;11.598;2022-09-09T18:22:42;1.88;;;1.30;;
10890;SDS011;5498;50.928;11.598;2022-09-09T18:25:44;2.35;;;1.48;;
10890;SDS011;5498;50.928;11.598;2022-09-09T18:28:47;5.55;;;1.27;;
10890;SDS011;5498;50.928;11.598;2022-09-09T18:31:50;3.50;;;1.23;;
10890;SDS011;5498;50.928;11.598;2022-09-09T18:34:53;3.75;;;1.45;;
10890;SDS011;5498;50.928;11.598;2022-09-09T18:37:59;3.83;;;2.17;;
10890;SDS011;5498;50.928;11.598;2022-09-09T18:41:11;3.97;;;2.20;;
10890;SDS011;5498;50.928;11.598;2022-09-09T18:44:17;1.55;;;1.45;;
10890;SDS011;5498;50.928;11.598;2022-09-09T18:47:21;3.33;;;1.40;;
10890;SDS011;5498;50.928;11.598;2022-09-09T18:50:23;2.63;;;1.20;;
10890;SDS011;5498;50.928;11.598;2022-09-09T18:53:26;2.90;;;1.63;;
10890;SDS011;5498;50.928;11.598;2022-09-09T18:56:28;4.55;;;1.60;;
10890;SDS011;5498;50.928;11.598;2022-09-09T18:59:31;4.13;;;1.48;;
10890;SDS011;5498;50.928;11.598;2022-09-09T19:02:33;4.80;;;1.65;;
10890;SDS011;5498;50.928;11.598;2022-09-09T19:05:35;2.97;;;1.80;;
10890;SDS011;5498;50.928;11.598;2022-09-09T19:08:38;2.17;;;1.50;;